sensor_id;sensor_type;location;lat;lon;timestamp;pressure;altitude;pressure_sealevel;temperature;humidity
44103;BME280;29769;42.178;24.742;2023-03-19T00:00:30;100284.63;;;0.36;100.00
44103;BME280;29769;42.178;24.742;2023-03-19T00:03:16;100292.78;;;0.22;100.00
44103;BME280;29769;42.178;24.742;2023-03-19T00:06:01;100296.28;;;0.24;100.00
44103;BME280;29769;42.178;24.742;2023-03-19T00:08:46;100294.63;;;0.26;100.00
44103;BME280;29769;42.178;24.742;2023-03-19T00:11:30;100293.69;;;0.24;100.00
44103;BME280;29769;42.178;24.742;2023-03-19T00:14:16;100286.16;;;0.30;100.00
44103;BME280;29769;42.178;24.742;2023-03-19T00:17:01;100198.47;;;-0.12;100.00
44103;BME280;29769;42.178;24.742;2023-03-19T00:19:45;100288.91;;;0.34;100.00
44103;BME280;29769;42.178;24.742;2023-03-19T00:22:30;100278.00;;;0.19;100.00
44103;BME280;29769;42.178;24.742;2023-03-19T00:25:16;100285.97;;;0.00;100.00
44103;BME280;29769;42.178;24.742;2023-03-19T00:28:01;100277.53;;;-0.18;100.00
44103;BME280;29769;42.178;24.742;2023-03-19T00:30:46;100273.75;;;-0.26;100.00
44103;BME280;29769;42.178;24.742;2023-03-19T00:33:30;100267.25;;;-0.39;100.00
44103;BME280;29769;42.178;24.742;2023-03-19T00:36:16;100262.28;;;-0.57;100.00
44103;BME280;29769;42.178;24.742;2023-03-19T00:39:01;100267.56;;;-0.54;100.00
44103;BME280;29769;42.178;24.742;2023-03-19T00:41:47;100261.66;;;-0.51;100.00
44103;BME280;29769;42.178;24.742;2023-03-19T00:44:33;100260.59;;;-0.56;100.00
44103;BME280;29769;42.178;24.742;2023-03-19T00:47:20;100259.13;;;-0.26;100.00
44103;BME280;29769;42.178;24.742;2023-03-19T00:50:06;100263.34;;;-0.06;100.00
44103;BME280;29769;42.178;24.742;2023-03-19T00:52:51;100245.75;;;0.10;100.00
44103;BME280;29769;42.178;24.742;2023-03-19T00:55:36;100253.91;;;0.20;100.00
44103;BME280;29769;42.178;24.742;2023-03-19T00:58:21;100251.97;;;0.15;100.00
44103;BME280;29769;42.178;24.742;2023-03-19T01:01:08;100245.00;;;0.12;100.00
44103;BME280;29769;42.178;24.742;2023-03-19T01:03:54;100241.69;;;0.16;100.00
44103;BME280;29769;42.178;24.742;2023-03-19T01:06:40;100243.97;;;0.07;100.00
44103;BME280;29769;42.178;24.742;2023-03-19T01:09:26;100238.78;;;0.07;100.00
44103;BME280;29769;42.178;24.742;2023-03-19T01:12:11;100242.59;;;0.18;100.00
44103;BME280;29769;42.178;24.742;2023-03-19T01:14:55;100240.88;;;0.42;100.00
44103;BME280;29769;42.178;24.742;2023-03-19T01:17:40;100233.47;;;0.53;100.00
44103;BME280;29769;42.178;24.742;2023-03-19T01:20:26;100227.94;;;0.69;100.00
44103;BME280;29769;42.178;24.742;2023-03-19T01:23:11;100237.88;;;0.82;100.00
44103;BME280;29769;42.178;24.742;2023-03-19T01:25:56;100219.81;;;0.84;100.00
44103;BME280;29769;42.178;24.742;2023-03-19T01:28:42;100232.88;;;1.15;100.00
44103;BME280;29769;42.178;24.742;2023-03-19T01:31:28;100238.34;;;1.24;100.00
44103;BME280;29769;42.178;24.742;2023-03-19T01:34:42;100211.63;;;0.99;100.00
44103;BME280;29769;42.178;24.742;2023-03-19T01:37:30;100227.78;;;0.90;100.00
44103;BME280;29769;42.178;24.742;2023-03-19T01:40:15;100237.88;;;0.82;100.00
44103;BME280;29769;42.178;24.742;2023-03-19T01:43:19;100225.78;;;0.56;100.00
44103;BME280;29769;42.178;24.742;2023-03-19T01:46:15;100235.19;;;0.53;100.00
44103;BME280;29769;42.178;24.742;2023-03-19T01:49:14;100237.38;;;0.40;100.00
44103;BME280;29769;42.178;24.742;2023-03-19T01:52:03;100238.44;;;0.22;100.00
44103;BME280;29769;42.178;24.742;2023-03-19T01:54:56;100228.94;;;-0.03;100.00
44103;BME280;29769;42.178;24.742;2023-03-19T01:58:02;100239.84;;;-0.12;100.00
44103;BME280;29769;42.178;24.742;2023-03-19T02:01:10;100252.88;;;-0.09;100.00
44103;BME280;29769;42.178;24.742;2023-03-19T02:03:59;100224.97;;;-0.17;100.00
44103;BME280;29769;42.178;24.742;2023-03-19T02:06:48;100253.03;;;-0.04;100.00
44103;BME280;29769;42.178;24.742;2023-03-19T02:09:33;100246.94;;;-0.06;100.00
44103;BME280;29769;42.178;24.742;2023-03-19T02:12:18;100250.56;;;-0.01;100.00
44103;BME280;29769;42.178;24.742;2023-03-19T02:15:03;100242.84;;;0.00;100.00
44103;BME280;29769;42.178;24.742;2023-03-19T02:17:49;100245.06;;;-0.10;100.00
44103;BME280;29769;42.178;24.742;2023-03-19T02:26:36;100262.59;;;0.48;100.00
44103;BME280;29769;42.178;24.742;2023-03-19T02:29:22;100264.16;;;0.68;100.00
44103;BME280;29769;42.178;24.742;2023-03-19T02:32:07;100265.44;;;0.80;100.00
44103;BME280;29769;42.178;24.742;2023-03-19T02:34:53;100265.22;;;0.74;100.00
44103;BME280;29769;42.178;24.742;2023-03-19T02:37:38;100257.31;;;0.70;100.00
44103;BME280;29769;42.178;24.742;2023-03-19T02:40:26;100282.31;;;0.95;100.00
44103;BME280;29769;42.178;24.742;2023-03-19T02:43:12;100289.13;;;1.19;100.00
44103;BME280;29769;42.178;24.742;2023-03-19T02:45:57;100264.09;;;1.20;100.00
44103;BME280;29769;42.178;24.742;2023-03-19T02:48:42;100270.88;;;1.43;100.00
44103;BME280;29769;42.178;24.742;2023-03-19T02:51:27;100277.44;;;1.60;100.00
44103;BME280;29769;42.178;24.742;2023-03-19T02:54:13;100280.16;;;1.63;100.00
44103;BME280;29769;42.178;24.742;2023-03-19T02:56:58;100270.50;;;1.59;100.00
44103;BME280;29769;42.178;24.742;2023-03-19T02:59:43;100275.88;;;1.65;100.00
44103;BME280;29769;42.178;24.742;2023-03-19T03:02:27;100276.00;;;1.70;100.00
44103;BME280;29769;42.178;24.742;2023-03-19T03:05:12;100275.31;;;1.75;100.00
44103;BME280;29769;42.178;24.742;2023-03-19T03:07:57;100273.81;;;1.84;100.00
44103;BME280;29769;42.178;24.742;2023-03-19T03:10:43;100269.81;;;1.95;100.00
44103;BME280;29769;42.178;24.742;2023-03-19T03:13:28;100275.75;;;1.91;100.00
44103;BME280;29769;42.178;24.742;2023-03-19T03:16:13;100280.75;;;1.85;100.00
44103;BME280;29769;42.178;24.742;2023-03-19T03:18:59;100282.88;;;1.68;100.00
44103;BME280;29769;42.178;24.742;2023-03-19T03:21:45;100289.50;;;1.58;100.00
44103;BME280;29769;42.178;24.742;2023-03-19T03:24:30;100286.19;;;1.64;100.00
44103;BME280;29769;42.178;24.742;2023-03-19T03:27:15;100284.72;;;1.72;100.00
44103;BME280;29769;42.178;24.742;2023-03-19T03:30:00;100288.50;;;1.83;100.00
44103;BME280;29769;42.178;24.742;2023-03-19T03:32:45;100286.16;;;1.92;100.00
44103;BME280;29769;42.178;24.742;2023-03-19T03:35:30;100285.47;;;1.98;100.00
44103;BME280;29769;42.178;24.742;2023-03-19T03:38:15;100283.75;;;1.98;100.00
44103;BME280;29769;42.178;24.742;2023-03-19T03:41:01;100289.13;;;2.06;100.00
44103;BME280;29769;42.178;24.742;2023-03-19T03:43:46;100295.41;;;2.14;100.00
44103;BME280;29769;42.178;24.742;2023-03-19T03:46:31;100293.75;;;2.16;100.00
44103;BME280;29769;42.178;24.742;2023-03-19T03:49:16;100295.41;;;2.14;100.00
44103;BME280;29769;42.178;24.742;2023-03-19T03:52:01;100297.16;;;2.13;100.00
44103;BME280;29769;42.178;24.742;2023-03-19T03:54:46;100296.03;;;2.05;100.00
44103;BME280;29769;42.178;24.742;2023-03-19T03:57:30;100296.72;;;1.98;100.00
44103;BME280;29769;42.178;24.742;2023-03-19T04:00:15;100296.22;;;2.11;100.00
44103;BME280;29769;42.178;24.742;2023-03-19T04:03:02;100294.69;;;2.18;100.00
44103;BME280;29769;42.178;24.742;2023-03-19T04:05:47;100296.94;;;2.06;100.00
44103;BME280;29769;42.178;24.742;2023-03-19T04:08:32;100280.75;;;1.85;100.00
44103;BME280;29769;42.178;24.742;2023-03-19T04:11:17;100302.00;;;1.73;100.00
44103;BME280;29769;42.178;24.742;2023-03-19T04:14:02;100301.44;;;1.53;100.00
44103;BME280;29769;42.178;24.742;2023-03-19T04:16:50;100295.03;;;1.42;100.00
44103;BME280;29769;42.178;24.742;2023-03-19T04:19:35;100300.47;;;1.23;100.00
44103;BME280;29769;42.178;24.742;2023-03-19T04:22:19;100305.03;;;1.03;100.00
44103;BME280;29769;42.178;24.742;2023-03-19T04:25:05;100310.44;;;0.84;100.00
44103;BME280;29769;42.178;24.742;2023-03-19T04:27:52;100304.06;;;0.74;100.00
44103;BME280;29769;42.178;24.742;2023-03-19T04:30:37;100307.31;;;0.69;100.00
44103;BME280;29769;42.178;24.742;2023-03-19T04:33:22;100303.56;;;0.84;100.00
44103;BME280;29769;42.178;24.742;2023-03-19T04:36:08;100308.38;;;0.99;100.00
44103;BME280;29769;42.178;24.742;2023-03-19T04:38:54;100307.94;;;1.14;100.00
44103;BME280;29769;42.178;24.742;2023-03-19T04:41:39;100308.38;;;1.27;100.00
44103;BME280;29769;42.178;24.742;2023-03-19T04:44:39;100315.59;;;1.36;100.00
44103;BME280;29769;42.178;24.742;2023-03-19T04:47:24;100312.44;;;1.46;100.00
44103;BME280;29769;42.178;24.742;2023-03-19T04:50:13;100316.75;;;1.46;100.00
44103;BME280;29769;42.178;24.742;2023-03-19T04:52:59;100319.84;;;1.34;100.00
44103;BME280;29769;42.178;24.742;2023-03-19T04:55:44;100317.94;;;1.28;100.00
44103;BME280;29769;42.178;24.742;2023-03-19T04:58:34;100313.28;;;1.18;100.00
44103;BME280;29769;42.178;24.742;2023-03-19T05:01:21;100304.41;;;1.10;100.00
44103;BME280;29769;42.178;24.742;2023-03-19T05:04:16;100285.06;;;0.99;100.00
44103;BME280;29769;42.178;24.742;2023-03-19T05:07:01;100317.41;;;1.12;100.00
44103;BME280;29769;42.178;24.742;2023-03-19T05:09:47;100325.69;;;1.27;100.00
44103;BME280;29769;42.178;24.742;2023-03-19T05:12:33;100330.22;;;1.34;100.00
44103;BME280;29769;42.178;24.742;2023-03-19T05:15:18;100335.16;;;1.53;100.00
44103;BME280;29769;42.178;24.742;2023-03-19T05:18:12;100345.81;;;1.62;100.00
44103;BME280;29769;42.178;24.742;2023-03-19T05:21:03;100340.69;;;1.65;100.00
44103;BME280;29769;42.178;24.742;2023-03-19T05:23:48;100335.72;;;1.73;100.00
44103;BME280;29769;42.178;24.742;2023-03-19T05:26:36;100334.06;;;1.75;100.00
44103;BME280;29769;42.178;24.742;2023-03-19T05:29:40;100332.22;;;1.71;100.00
44103;BME280;29769;42.178;24.742;2023-03-19T05:32:39;100330.75;;;1.79;100.00
44103;BME280;29769;42.178;24.742;2023-03-19T05:35:27;100335.09;;;2.10;100.00
44103;BME280;29769;42.178;24.742;2023-03-19T05:38:14;100338.28;;;2.30;100.00
44103;BME280;29769;42.178;24.742;2023-03-19T05:41:06;100339.84;;;2.56;100.00
44103;BME280;29769;42.178;24.742;2023-03-19T05:44:02;100344.69;;;2.75;100.00
44103;BME280;29769;42.178;24.742;2023-03-19T05:47:11;100347.94;;;2.99;100.00
44103;BME280;29769;42.178;24.742;2023-03-19T05:49:58;100352.25;;;2.99;100.00
44103;BME280;29769;42.178;24.742;2023-03-19T05:52:44;100359.47;;;3.45;100.00
44103;BME280;29769;42.178;24.742;2023-03-19T05:55:29;100351.06;;;3.94;98.25
44103;BME280;29769;42.178;24.742;2023-03-19T05:58:26;100339.31;;;5.06;90.11
44103;BME280;29769;42.178;24.742;2023-03-19T06:01:12;100348.63;;;5.98;81.43
44103;BME280;29769;42.178;24.742;2023-03-19T06:03:57;100343.81;;;6.32;74.12
44103;BME280;29769;42.178;24.742;2023-03-19T06:06:41;100352.81;;;6.56;72.92
44103;BME280;29769;42.178;24.742;2023-03-19T06:09:27;100356.47;;;7.67;70.38
44103;BME280;29769;42.178;24.742;2023-03-19T06:12:14;100357.50;;;7.96;66.05
44103;BME280;29769;42.178;24.742;2023-03-19T06:15:02;100369.28;;;8.88;62.18
44103;BME280;29769;42.178;24.742;2023-03-19T06:18:07;100368.41;;;10.03;56.27
44103;BME280;29769;42.178;24.742;2023-03-19T06:20:53;100350.59;;;10.81;52.14
44103;BME280;29769;42.178;24.742;2023-03-19T06:23:38;100361.91;;;10.92;50.36
44103;BME280;29769;42.178;24.742;2023-03-19T06:26:25;100365.47;;;10.89;50.86
44103;BME280;29769;42.178;24.742;2023-03-19T06:29:12;100358.53;;;10.76;49.93
44103;BME280;29769;42.178;24.742;2023-03-19T06:31:59;100353.47;;;10.14;51.67
44103;BME280;29769;42.178;24.742;2023-03-19T06:34:57;100352.72;;;9.36;52.68
44103;BME280;29769;42.178;24.742;2023-03-19T06:37:42;100355.31;;;8.89;54.17
44103;BME280;29769;42.178;24.742;2023-03-19T06:40:27;100350.03;;;8.78;54.73
44103;BME280;29769;42.178;24.742;2023-03-19T06:43:11;100348.31;;;8.85;55.08
44103;BME280;29769;42.178;24.742;2023-03-19T06:45:56;100347.47;;;9.25;54.49
44103;BME280;29769;42.178;24.742;2023-03-19T06:48:41;100338.72;;;9.32;53.16
44103;BME280;29769;42.178;24.742;2023-03-19T06:51:26;100343.91;;;8.78;54.50
44103;BME280;29769;42.178;24.742;2023-03-19T06:54:13;100331.72;;;9.33;53.37
44103;BME280;29769;42.178;24.742;2023-03-19T06:56:58;100326.44;;;9.63;53.43
44103;BME280;29769;42.178;24.742;2023-03-19T06:59:43;100335.13;;;9.93;52.79
44103;BME280;29769;42.178;24.742;2023-03-19T07:02:28;100334.19;;;10.30;50.95
44103;BME280;29769;42.178;24.742;2023-03-19T07:05:13;100341.13;;;10.42;51.64
44103;BME280;29769;42.178;24.742;2023-03-19T07:07:58;100328.63;;;10.89;50.82
44103;BME280;29769;42.178;24.742;2023-03-19T07:10:43;100334.06;;;10.56;52.26
44103;BME280;29769;42.178;24.742;2023-03-19T07:13:28;100331.38;;;10.66;51.63
44103;BME280;29769;42.178;24.742;2023-03-19T07:16:13;100324.97;;;11.05;51.61
44103;BME280;29769;42.178;24.742;2023-03-19T07:18:57;100325.00;;;12.00;49.60
44103;BME280;29769;42.178;24.742;2023-03-19T07:21:42;100314.09;;;12.33;47.20
44103;BME280;29769;42.178;24.742;2023-03-19T07:24:27;100318.88;;;11.99;47.93
44103;BME280;29769;42.178;24.742;2023-03-19T07:27:12;100322.94;;;12.29;46.80
44103;BME280;29769;42.178;24.742;2023-03-19T07:29:56;100314.47;;;12.70;45.96
44103;BME280;29769;42.178;24.742;2023-03-19T07:32:41;100307.97;;;12.94;45.17
44103;BME280;29769;42.178;24.742;2023-03-19T07:35:27;100301.91;;;12.87;45.36
44103;BME280;29769;42.178;24.742;2023-03-19T07:38:12;100305.81;;;13.20;44.65
44103;BME280;29769;42.178;24.742;2023-03-19T07:40:58;100296.63;;;13.90;43.07
44103;BME280;29769;42.178;24.742;2023-03-19T07:43:42;100287.00;;;14.31;41.13
44103;BME280;29769;42.178;24.742;2023-03-19T07:46:27;100298.44;;;13.90;41.15
44103;BME280;29769;42.178;24.742;2023-03-19T07:49:12;100278.63;;;14.09;40.66
44103;BME280;29769;42.178;24.742;2023-03-19T07:51:57;100301.69;;;14.47;39.88
44103;BME280;29769;42.178;24.742;2023-03-19T07:54:42;100290.84;;;14.97;38.43
44103;BME280;29769;42.178;24.742;2023-03-19T07:57:27;100291.63;;;15.36;37.89
44103;BME280;29769;42.178;24.742;2023-03-19T08:00:12;100291.34;;;15.81;37.20
44103;BME280;29769;42.178;24.742;2023-03-19T08:02:58;100287.44;;;15.95;36.37
44103;BME280;29769;42.178;24.742;2023-03-19T08:05:43;100289.59;;;16.72;34.90
44103;BME280;29769;42.178;24.742;2023-03-19T08:08:28;100285.53;;;17.70;33.92
44103;BME280;29769;42.178;24.742;2023-03-19T08:11:13;100279.47;;;18.38;32.89
44103;BME280;29769;42.178;24.742;2023-03-19T08:13:57;100276.03;;;18.81;31.12
44103;BME280;29769;42.178;24.742;2023-03-19T08:16:42;100281.81;;;18.92;30.73
44103;BME280;29769;42.178;24.742;2023-03-19T08:19:27;100274.09;;;18.63;31.38
44103;BME280;29769;42.178;24.742;2023-03-19T08:22:12;100269.31;;;19.36;29.53
44103;BME280;29769;42.178;24.742;2023-03-19T08:24:57;100265.69;;;19.99;28.25
44103;BME280;29769;42.178;24.742;2023-03-19T08:27:41;100254.53;;;20.86;27.99
44103;BME280;29769;42.178;24.742;2023-03-19T08:30:26;100255.84;;;19.19;28.59
44103;BME280;29769;42.178;24.742;2023-03-19T08:33:11;100243.44;;;18.96;29.17
44103;BME280;29769;42.178;24.742;2023-03-19T08:36:04;100234.09;;;19.50;29.15
44103;BME280;29769;42.178;24.742;2023-03-19T08:38:49;100241.50;;;20.23;27.46
44103;BME280;29769;42.178;24.742;2023-03-19T08:41:38;100239.25;;;20.34;27.61
44103;BME280;29769;42.178;24.742;2023-03-19T08:44:22;100242.84;;;21.94;26.15
44103;BME280;29769;42.178;24.742;2023-03-19T08:47:07;100243.81;;;22.08;25.65
44103;BME280;29769;42.178;24.742;2023-03-19T08:49:52;100233.72;;;23.55;24.70
44103;BME280;29769;42.178;24.742;2023-03-19T08:52:37;100241.81;;;23.23;23.99
44103;BME280;29769;42.178;24.742;2023-03-19T08:55:21;100228.53;;;23.06;24.00
44103;BME280;29769;42.178;24.742;2023-03-19T08:58:06;100233.59;;;23.86;23.44
44103;BME280;29769;42.178;24.742;2023-03-19T09:00:51;100226.13;;;24.62;22.18
44103;BME280;29769;42.178;24.742;2023-03-19T09:03:38;100235.81;;;25.05;21.73
44103;BME280;29769;42.178;24.742;2023-03-19T09:06:23;100237.13;;;23.86;22.96
44103;BME280;29769;42.178;24.742;2023-03-19T09:09:07;100223.56;;;24.18;23.12
44103;BME280;29769;42.178;24.742;2023-03-19T09:11:52;100215.06;;;25.47;22.08
44103;BME280;29769;42.178;24.742;2023-03-19T09:14:39;100214.97;;;26.49;21.03
44103;BME280;29769;42.178;24.742;2023-03-19T09:17:23;100204.84;;;27.72;20.08
44103;BME280;29769;42.178;24.742;2023-03-19T09:20:09;100202.84;;;26.31;20.53
44103;BME280;29769;42.178;24.742;2023-03-19T09:22:54;100202.94;;;25.92;21.01
44103;BME280;29769;42.178;24.742;2023-03-19T09:25:39;100194.03;;;27.13;20.13
44103;BME280;29769;42.178;24.742;2023-03-19T09:28:24;100189.00;;;27.90;20.09
44103;BME280;29769;42.178;24.742;2023-03-19T09:31:09;100182.91;;;26.94;20.04
44103;BME280;29769;42.178;24.742;2023-03-19T09:33:55;100189.56;;;27.25;20.52
44103;BME280;29769;42.178;24.742;2023-03-19T09:36:40;100188.41;;;25.30;22.48
44103;BME280;29769;42.178;24.742;2023-03-19T09:39:25;100185.25;;;26.00;21.04
44103;BME280;29769;42.178;24.742;2023-03-19T09:45:00;100173.78;;;28.00;20.28
44103;BME280;29769;42.178;24.742;2023-03-19T09:47:50;100167.16;;;28.48;19.54
44103;BME280;29769;42.178;24.742;2023-03-19T09:50:37;100168.31;;;29.21;19.37
44103;BME280;29769;42.178;24.742;2023-03-19T09:53:56;100161.50;;;31.18;18.40
44103;BME280;29769;42.178;24.742;2023-03-19T09:56:42;100149.28;;;32.53;17.22
44103;BME280;29769;42.178;24.742;2023-03-19T09:59:27;100150.53;;;32.59;16.81
44103;BME280;29769;42.178;24.742;2023-03-19T10:14:07;100124.28;;;35.64;14.95
44103;BME280;29769;42.178;24.742;2023-03-19T10:16:57;100118.41;;;34.95;15.67
44103;BME280;29769;42.178;24.742;2023-03-19T10:19:50;100116.66;;;35.91;14.73
44103;BME280;29769;42.178;24.742;2023-03-19T10:22:43;100107.56;;;35.98;15.21
44103;BME280;29769;42.178;24.742;2023-03-19T10:25:30;100104.88;;;35.90;14.52
44103;BME280;29769;42.178;24.742;2023-03-19T10:28:16;100097.09;;;36.10;14.77
44103;BME280;29769;42.178;24.742;2023-03-19T10:34:27;100078.06;;;35.61;15.14
44103;BME280;29769;42.178;24.742;2023-03-19T10:40:01;100061.78;;;34.05;15.93
44103;BME280;29769;42.178;24.742;2023-03-19T10:45:47;100055.25;;;34.31;16.14
44103;BME280;29769;42.178;24.742;2023-03-19T10:48:42;100054.06;;;36.27;14.97
44103;BME280;29769;42.178;24.742;2023-03-19T10:51:27;100053.78;;;36.75;14.72
44103;BME280;29769;42.178;24.742;2023-03-19T10:54:24;100041.50;;;36.40;14.81
44103;BME280;29769;42.178;24.742;2023-03-19T10:57:26;100038.19;;;36.76;14.47
44103;BME280;29769;42.178;24.742;2023-03-19T11:00:15;100035.41;;;37.88;14.08
44103;BME280;29769;42.178;24.742;2023-03-19T11:03:01;100025.72;;;36.73;14.65
44103;BME280;29769;42.178;24.742;2023-03-19T11:06:06;100029.44;;;35.88;14.62
44103;BME280;29769;42.178;24.742;2023-03-19T11:09:13;100019.31;;;36.27;14.79
44103;BME280;29769;42.178;24.742;2023-03-19T11:14:57;100021.22;;;35.24;15.37
44103;BME280;29769;42.178;24.742;2023-03-19T11:17:48;100009.09;;;36.44;14.32
44103;BME280;29769;42.178;24.742;2023-03-19T11:20:35;100008.81;;;37.07;14.17
44103;BME280;29769;42.178;24.742;2023-03-19T11:23:20;100002.41;;;36.24;14.34
44103;BME280;29769;42.178;24.742;2023-03-19T11:26:05;100005.53;;;36.89;14.31
44103;BME280;29769;42.178;24.742;2023-03-19T11:28:51;99991.56;;;36.98;13.81
44103;BME280;29769;42.178;24.742;2023-03-19T11:31:53;99986.41;;;37.56;13.77
44103;BME280;29769;42.178;24.742;2023-03-19T11:34:52;99983.13;;;37.23;14.05
44103;BME280;29769;42.178;24.742;2023-03-19T11:37:53;99990.69;;;37.06;14.36
44103;BME280;29769;42.178;24.742;2023-03-19T11:46:35;99973.50;;;37.41;14.24
44103;BME280;29769;42.178;24.742;2023-03-19T11:55:49;99959.56;;;39.36;13.11
44103;BME280;29769;42.178;24.742;2023-03-19T11:58:43;99950.31;;;38.66;13.62
44103;BME280;29769;42.178;24.742;2023-03-19T12:07:45;99945.72;;;39.23;13.07
44103;BME280;29769;42.178;24.742;2023-03-19T12:10:52;99942.97;;;38.10;13.68
44103;BME280;29769;42.178;24.742;2023-03-19T12:16:39;99944.09;;;35.76;14.82
44103;BME280;29769;42.178;24.742;2023-03-19T12:22:51;99942.28;;;34.73;15.50
44103;BME280;29769;42.178;24.742;2023-03-19T12:26:03;99938.31;;;35.00;15.59
44103;BME280;29769;42.178;24.742;2023-03-19T12:29:17;99927.97;;;33.46;16.59
44103;BME280;29769;42.178;24.742;2023-03-19T12:38:26;99919.25;;;33.77;16.03
44103;BME280;29769;42.178;24.742;2023-03-19T12:41:20;99911.63;;;33.46;16.10
44103;BME280;29769;42.178;24.742;2023-03-19T12:44:33;99917.53;;;32.82;17.21
44103;BME280;29769;42.178;24.742;2023-03-19T12:47:24;99885.00;;;33.48;17.04
44103;BME280;29769;42.178;24.742;2023-03-19T12:50:13;99906.31;;;33.11;16.43
44103;BME280;29769;42.178;24.742;2023-03-19T12:52:59;99890.25;;;33.08;16.73
44103;BME280;29769;42.178;24.742;2023-03-19T12:55:50;99903.16;;;32.72;17.21
44103;BME280;29769;42.178;24.742;2023-03-19T12:59:01;99888.72;;;32.36;17.15
44103;BME280;29769;42.178;24.742;2023-03-19T13:02:02;99889.31;;;33.51;16.55
44103;BME280;29769;42.178;24.742;2023-03-19T13:08:21;99880.78;;;32.86;16.57
44103;BME280;29769;42.178;24.742;2023-03-19T13:11:13;99884.53;;;32.06;17.51
44103;BME280;29769;42.178;24.742;2023-03-19T13:23:35;99863.41;;;30.81;18.30
44103;BME280;29769;42.178;24.742;2023-03-19T13:26:21;99857.47;;;32.22;17.09
44103;BME280;29769;42.178;24.742;2023-03-19T13:31:52;99857.09;;;30.06;18.74
44103;BME280;29769;42.178;24.742;2023-03-19T13:34:43;99854.06;;;29.70;18.92
44103;BME280;29769;42.178;24.742;2023-03-19T13:37:28;99838.84;;;31.20;18.54
44103;BME280;29769;42.178;24.742;2023-03-19T13:40:39;99847.91;;;29.18;19.35
44103;BME280;29769;42.178;24.742;2023-03-19T13:49:26;99828.66;;;29.22;20.03
44103;BME280;29769;42.178;24.742;2023-03-19T13:58:13;99816.63;;;29.45;19.69
44103;BME280;29769;42.178;24.742;2023-03-19T14:07:39;99805.88;;;27.80;21.66
44103;BME280;29769;42.178;24.742;2023-03-19T14:10:28;99807.78;;;27.04;22.50
44103;BME280;29769;42.178;24.742;2023-03-19T14:13:37;99810.53;;;27.47;22.10
44103;BME280;29769;42.178;24.742;2023-03-19T14:16:25;99805.50;;;27.31;22.26
44103;BME280;29769;42.178;24.742;2023-03-19T14:19:16;99783.44;;;25.80;23.33
44103;BME280;29769;42.178;24.742;2023-03-19T14:22:36;99807.00;;;25.05;24.31
44103;BME280;29769;42.178;24.742;2023-03-19T14:25:23;99807.66;;;24.83;24.72
44103;BME280;29769;42.178;24.742;2023-03-19T14:28:09;99800.59;;;24.44;25.07
44103;BME280;29769;42.178;24.742;2023-03-19T14:30:55;99779.47;;;24.13;25.59
44103;BME280;29769;42.178;24.742;2023-03-19T14:33:47;99800.53;;;23.93;25.87
44103;BME280;29769;42.178;24.742;2023-03-19T14:36:36;99810.47;;;23.66;26.38
44103;BME280;29769;42.178;24.742;2023-03-19T14:39:30;99797.88;;;24.06;25.99
44103;BME280;29769;42.178;24.742;2023-03-19T14:42:29;99798.78;;;23.80;26.08
44103;BME280;29769;42.178;24.742;2023-03-19T14:45:28;99796.00;;;24.21;26.10
44103;BME280;29769;42.178;24.742;2023-03-19T14:52:00;99792.78;;;23.09;27.47
44103;BME280;29769;42.178;24.742;2023-03-19T14:54:50;99787.06;;;23.00;27.97
44103;BME280;29769;42.178;24.742;2023-03-19T14:57:37;99782.13;;;22.38;28.67
44103;BME280;29769;42.178;24.742;2023-03-19T15:00:22;99792.47;;;22.44;28.69
44103;BME280;29769;42.178;24.742;2023-03-19T15:03:18;99792.06;;;22.64;28.49
44103;BME280;29769;42.178;24.742;2023-03-19T15:06:05;99801.84;;;22.65;28.67
44103;BME280;29769;42.178;24.742;2023-03-19T15:08:51;99789.09;;;22.83;28.40
44103;BME280;29769;42.178;24.742;2023-03-19T15:18:08;99804.47;;;21.79;30.01
44103;BME280;29769;42.178;24.742;2023-03-19T15:20:55;99798.25;;;21.94;29.96
44103;BME280;29769;42.178;24.742;2023-03-19T15:23:40;99805.22;;;21.96;29.45
44103;BME280;29769;42.178;24.742;2023-03-19T15:26:33;99807.81;;;21.82;29.93
44103;BME280;29769;42.178;24.742;2023-03-19T15:29:29;99799.38;;;21.74;30.23
44103;BME280;29769;42.178;24.742;2023-03-19T15:32:33;99802.19;;;21.87;30.45
44103;BME280;29769;42.178;24.742;2023-03-19T15:35:19;99803.53;;;21.64;30.70
44103;BME280;29769;42.178;24.742;2023-03-19T15:38:08;99795.81;;;20.81;31.82
44103;BME280;29769;42.178;24.742;2023-03-19T15:40:53;99805.63;;;20.15;32.97
44103;BME280;29769;42.178;24.742;2023-03-19T15:43:40;99815.22;;;19.67;34.28
44103;BME280;29769;42.178;24.742;2023-03-19T15:46:28;99810.75;;;19.13;35.21
44103;BME280;29769;42.178;24.742;2023-03-19T15:52:08;99828.66;;;18.74;36.38
44103;BME280;29769;42.178;24.742;2023-03-19T15:54:54;99821.16;;;18.82;36.41
44103;BME280;29769;42.178;24.742;2023-03-19T15:57:40;99822.47;;;18.92;36.17
44103;BME280;29769;42.178;24.742;2023-03-19T16:00:26;99828.38;;;18.80;36.50
44103;BME280;29769;42.178;24.742;2023-03-19T16:03:16;99836.56;;;18.56;37.03
44103;BME280;29769;42.178;24.742;2023-03-19T16:06:11;99832.44;;;18.29;37.53
44103;BME280;29769;42.178;24.742;2023-03-19T16:21:13;99838.25;;;17.34;40.44
44103;BME280;29769;42.178;24.742;2023-03-19T16:24:34;99849.31;;;17.01;41.52
44103;BME280;29769;42.178;24.742;2023-03-19T16:27:36;99849.41;;;16.76;42.23
44103;BME280;29769;42.178;24.742;2023-03-19T16:30:24;99843.19;;;16.52;43.48
44103;BME280;29769;42.178;24.742;2023-03-19T16:33:11;99858.59;;;16.18;44.72
44103;BME280;29769;42.178;24.742;2023-03-19T16:35:57;99853.19;;;15.96;45.61